Malta, Idaho
Current Conditions -  °F | °C
As of 2:53 PM on Friday 31 Oct 2014 (Local Time) from KBYI Reporting Station
Clear Clear  
Wind Chill: 17°   Ceiling: Unl
Heat Index: 17°   Visibility: 10mi
Dew Point:   Wind: 7mph
Humidity: 33%   Direction: 190°S
Pressure: 29.83"   Gusts: NA
Location:  42.31°N, 113.37°W
Report Text: KBYI 312053Z AUTO 19006KT 10SM CLR 17/01 A2983 RMK AO2 SLP081 T01720006 56020
Loading
Personal Weather Stations






























Interactive Weather Map
Tropical Storm Tracking
New forecast layout! Learn more

10-Day Weather Forecast

Advertisements
Track Severe Weather on mobile